createdAt,value
2019-01-18T00:00:33.455Z,100739.70
2019-01-18T00:04:39.925Z,100747.97
2019-01-18T00:08:45.094Z,100747.08
2019-01-18T00:12:50.437Z,100752.77
2019-01-18T00:16:55.599Z,100751.03
2019-01-18T00:21:00.690Z,100768.69
2019-01-18T00:25:06.233Z,100766.09
2019-01-18T00:29:11.230Z,100771.83
2019-01-18T00:33:16.312Z,100765.36
2019-01-18T00:37:21.369Z,100776.63
2019-01-18T00:41:26.469Z,100769.41
2019-01-18T00:45:31.808Z,100775.52
2019-01-18T00:49:36.873Z,100769.09
2019-01-18T00:53:41.996Z,100777.03
2019-01-18T00:57:47.074Z,100780.97
2019-01-18T01:01:52.211Z,100785.48
2019-01-18T01:05:57.366Z,100788.08
2019-01-18T01:10:02.532Z,100800.96
2019-01-18T01:14:07.599Z,100810.09
2019-01-18T01:18:12.762Z,100817.52
2019-01-18T01:22:18.157Z,100826.79
2019-01-18T01:26:23.334Z,100835.73
2019-01-18T01:30:28.449Z,100833.52
2019-01-18T01:34:33.617Z,100839.56
2019-01-18T01:38:38.677Z,100844.42
2019-01-18T01:42:43.919Z,100848.77
2019-01-18T01:46:48.983Z,100861.67
2019-01-18T01:50:54.037Z,100866.38
2019-01-18T01:54:59.189Z,100878.47
2019-01-18T01:59:04.308Z,100889.20
2019-01-18T02:03:09.436Z,100889.57
2019-01-18T02:07:14.636Z,100894.72
2019-01-18T02:11:19.727Z,100898.27
2019-01-18T02:15:26.606Z,100900.45
2019-01-18T02:19:37.650Z,100896.23
2019-01-18T02:23:43.763Z,100902.34
2019-01-18T02:27:49.053Z,100919.30
2019-01-18T02:31:54.111Z,100927.12
2019-01-18T02:35:59.215Z,100931.01
2019-01-18T02:40:05.196Z,100939.25
2019-01-18T02:44:10.726Z,100953.47
2019-01-18T02:48:15.812Z,100951.77
2019-01-18T02:52:20.961Z,100955.73
2019-01-18T02:56:26.110Z,100961.36
2019-01-18T03:00:31.234Z,100969.56
2019-01-18T03:04:36.332Z,100965.72
2019-01-18T03:08:41.448Z,100980.52
2019-01-18T03:12:46.847Z,100981.80
2019-01-18T03:16:51.923Z,100979.28
2019-01-18T03:20:56.991Z,100990.10
2019-01-18T03:25:02.424Z,100991.39
2019-01-18T03:29:07.465Z,101000.98
2019-01-18T03:33:12.509Z,101000.54
2019-01-18T03:37:17.568Z,101013.52
2019-01-18T03:41:22.715Z,101021.29
2019-01-18T03:45:27.791Z,101021.30
2019-01-18T03:49:32.865Z,101028.34
2019-01-18T03:53:37.984Z,101036.41
2019-01-18T03:57:44.013Z,101047.31
2019-01-18T04:01:49.071Z,101047.74
2019-01-18T04:05:54.219Z,101056.92
2019-01-18T04:09:59.260Z,101060.72
2019-01-18T04:14:05.578Z,101069.32
2019-01-18T04:18:10.696Z,101077.61
2019-01-18T04:22:15.935Z,101075.03
2019-01-18T04:26:20.962Z,101075.49
2019-01-18T04:30:32.980Z,101081.13
2019-01-18T04:34:32.960Z,101081.16
2019-01-18T04:38:38.098Z,101076.85
2019-01-18T04:42:43.262Z,101079.44
2019-01-18T04:46:48.364Z,101075.13
2019-01-18T04:50:53.418Z,101077.70
2019-01-18T04:54:58.475Z,101075.55
2019-01-18T04:59:03.612Z,101083.38
2019-01-18T05:03:08.721Z,101084.66
2019-01-18T05:07:14.832Z,101090.27
2019-01-18T05:11:19.876Z,101094.18
2019-01-18T05:15:27.015Z,101106.66
2019-01-18T05:19:32.095Z,101109.28
2019-01-18T05:23:37.271Z,101118.33
2019-01-18T05:27:42.307Z,101123.50
2019-01-18T05:31:47.388Z,101133.84
2019-01-18T05:35:52.792Z,101121.77
2019-01-18T05:39:57.908Z,101130.01
2019-01-18T05:44:03.030Z,101136.90
2019-01-18T05:48:08.077Z,101133.44
2019-01-18T05:52:13.221Z,101135.19
2019-01-18T05:56:18.249Z,101145.56
2019-01-18T06:00:37.430Z,101153.30
2019-01-18T06:04:44.265Z,101155.45
2019-01-18T06:08:50.018Z,101162.34
2019-01-18T06:12:55.237Z,101158.90
2019-01-18T06:17:00.284Z,101170.11
2019-01-18T06:21:05.615Z,101170.97
2019-01-18T06:25:10.749Z,101174.86
2019-01-18T06:29:16.076Z,101172.70
2019-01-18T06:33:21.224Z,101175.30
2019-01-18T06:37:26.242Z,101172.20
2019-01-18T06:41:37.637Z,101178.15
2019-01-18T06:45:42.690Z,101187.59
2019-01-18T06:49:47.749Z,101192.92
2019-01-18T06:53:52.797Z,101197.23
2019-01-18T06:57:57.855Z,101205.47
2019-01-18T07:02:02.864Z,101199.31
2019-01-18T07:06:07.913Z,101204.77
2019-01-18T07:10:20.471Z,101209.67
2019-01-18T07:14:21.202Z,101209.47
2019-01-18T07:18:26.258Z,101213.67
2019-01-18T07:22:31.351Z,101214.84
2019-01-18T07:26:36.697Z,101217.14
2019-01-18T07:30:43.008Z,101217.61
2019-01-18T07:34:47.989Z,101227.69
2019-01-18T07:38:53.028Z,101237.73
2019-01-18T07:42:58.157Z,101237.32
2019-01-18T07:47:03.253Z,101244.73
2019-01-18T07:51:09.143Z,101247.19
2019-01-18T07:55:14.232Z,101246.19
2019-01-18T07:59:20.359Z,101262.34
2019-01-18T08:03:25.492Z,101267.00
2019-01-18T08:07:30.504Z,101272.10
2019-01-18T08:11:35.582Z,101284.60
2019-01-18T08:15:42.774Z,101284.11
2019-01-18T08:19:48.033Z,101291.66
2019-01-18T08:23:55.757Z,101290.03
2019-01-18T08:28:01.190Z,101299.11
2019-01-18T08:32:06.293Z,101306.80
2019-01-18T08:36:11.428Z,101305.11
2019-01-18T08:40:24.968Z,101319.69
2019-01-18T08:44:30.066Z,101328.31
2019-01-18T08:48:35.180Z,101332.33
2019-01-18T08:52:40.633Z,101339.56
2019-01-18T08:56:45.708Z,101341.73
2019-01-18T09:00:50.837Z,101349.05
2019-01-18T09:04:55.904Z,101353.36
2019-01-18T09:09:01.087Z,101356.86
2019-01-18T09:13:07.407Z,101361.56
2019-01-18T09:17:12.455Z,101370.06
2019-01-18T09:21:17.482Z,101382.63
2019-01-18T09:25:23.655Z,101384.34
2019-01-18T09:29:28.693Z,101388.59
2019-01-18T09:33:33.755Z,101398.12
2019-01-18T09:37:38.794Z,101393.84
2019-01-18T09:41:44.896Z,101391.74
2019-01-18T09:45:50.030Z,101388.30
2019-01-18T09:49:55.012Z,101393.08
2019-01-18T09:54:00.106Z,101395.28
2019-01-18T09:58:05.833Z,101410.43
2019-01-18T10:02:10.928Z,101412.16
2019-01-18T10:06:15.997Z,101416.03
2019-01-18T10:10:21.467Z,101410.86
2019-01-18T10:14:26.525Z,101406.56
2019-01-18T10:18:33.314Z,101414.77
2019-01-18T10:22:38.425Z,101417.81
2019-01-18T10:26:43.809Z,101419.94
2019-01-18T10:30:48.924Z,101415.21
2019-01-18T10:34:54.226Z,101410.03
2019-01-18T10:38:59.311Z,101410.47
2019-01-18T10:43:04.367Z,101410.45
2019-01-18T10:47:09.497Z,101410.45
2019-01-18T10:51:14.665Z,101403.06
2019-01-18T10:55:19.792Z,101407.73
2019-01-18T10:59:24.836Z,101407.30
2019-01-18T11:03:29.867Z,101405.66
2019-01-18T11:07:36.668Z,101412.06
2019-01-18T11:11:41.725Z,101414.23
2019-01-18T11:15:46.809Z,101403.34
2019-01-18T11:19:51.943Z,101405.88
2019-01-18T11:23:56.992Z,101406.31
2019-01-18T11:28:02.139Z,101407.73
2019-01-18T11:32:13.580Z,101399.98
2019-01-18T11:36:14.870Z,101392.52
2019-01-18T11:40:21.164Z,101387.39
2019-01-18T11:44:26.205Z,101381.23
2019-01-18T11:48:31.150Z,101378.75
2019-01-18T11:52:36.300Z,101372.09
2019-01-18T11:56:41.471Z,101379.22
2019-01-18T12:00:46.522Z,101376.91
2019-01-18T12:04:51.642Z,101370.90
2019-01-18T12:08:56.765Z,101367.85
2019-01-18T12:13:01.791Z,101363.49
2019-01-18T12:17:06.916Z,101369.03
2019-01-18T12:21:12.047Z,101370.08
2019-01-18T12:25:17.265Z,101357.40
2019-01-18T12:29:23.064Z,101367.82
2019-01-18T12:33:28.117Z,101364.97
2019-01-18T12:37:33.160Z,101369.94
2019-01-18T12:41:38.207Z,101368.83
2019-01-18T12:45:43.372Z,101360.33
2019-01-18T12:49:48.448Z,101364.38
2019-01-18T12:53:53.555Z,101368.31
2019-01-18T12:57:58.762Z,101370.09
2019-01-18T13:02:03.873Z,101367.04
2019-01-18T13:06:10.020Z,101365.36
2019-01-18T13:10:15.206Z,101358.72
2019-01-18T13:14:20.286Z,101358.94
2019-01-18T13:18:25.394Z,101363.14
2019-01-18T13:22:30.470Z,101349.38
2019-01-18T13:26:35.599Z,101355.52
2019-01-18T13:30:40.665Z,101348.11
2019-01-18T13:34:45.691Z,101346.05
2019-01-18T13:38:50.837Z,101344.75
2019-01-18T13:42:55.962Z,101344.78
2019-01-18T13:47:01.119Z,101347.38
2019-01-18T13:51:06.191Z,101351.19
2019-01-18T13:55:14.916Z,101346.80
2019-01-18T13:59:20.980Z,101340.34
2019-01-18T14:03:26.049Z,101347.27
2019-01-18T14:07:31.164Z,101348.67
2019-01-18T14:11:36.524Z,101334.78
2019-01-18T14:15:41.549Z,101339.09
2019-01-18T14:19:46.640Z,101341.29
2019-01-18T14:23:51.855Z,101341.72
2019-01-18T14:27:56.933Z,101337.84
2019-01-18T14:32:02.728Z,101334.44
2019-01-18T14:36:07.743Z,101344.41
2019-01-18T14:40:13.727Z,101331.47
2019-01-18T14:44:18.793Z,101330.17
2019-01-18T14:48:23.925Z,101330.59
2019-01-18T14:52:29.018Z,101330.16
2019-01-18T14:56:34.059Z,101331.90
2019-01-18T15:00:39.925Z,101329.73
2019-01-18T15:04:46.185Z,101329.73
2019-01-18T15:08:51.300Z,101323.68
2019-01-18T15:12:59.297Z,101324.13
2019-01-18T15:17:04.362Z,101318.07
2019-01-18T15:21:09.480Z,101318.93
2019-01-18T15:25:14.771Z,101318.50
2019-01-18T15:29:20.178Z,101323.24
2019-01-18T15:33:25.333Z,101321.95
2019-01-18T15:37:30.535Z,101316.35
2019-01-18T15:41:35.591Z,101314.63
2019-01-18T15:45:41.184Z,101311.58
2019-01-18T15:49:47.255Z,101307.29
2019-01-18T15:53:52.461Z,101317.19
2019-01-18T15:57:57.729Z,101312.48
2019-01-18T16:02:02.854Z,101315.05
2019-01-18T16:06:08.062Z,101310.72
2019-01-18T16:10:14.177Z,101314.17
2019-01-18T16:14:19.288Z,101317.62
2019-01-18T16:18:24.752Z,101313.70
2019-01-18T16:22:30.111Z,101313.73
2019-01-18T16:26:35.760Z,101319.34
2019-01-18T16:30:40.784Z,101322.36
2019-01-18T16:34:45.992Z,101323.19
2019-01-18T16:38:51.115Z,101318.02
2019-01-18T16:43:05.514Z,101312.41
2019-01-18T16:47:10.738Z,101318.88
2019-01-18T16:51:15.882Z,101328.36
2019-01-18T16:55:21.011Z,101317.97
2019-01-18T16:59:26.368Z,101321.89
2019-01-18T17:03:31.538Z,101318.02
2019-01-18T17:07:36.613Z,101316.72
2019-01-18T17:11:41.699Z,101318.40
2019-01-18T17:15:46.880Z,101320.16
2019-01-18T17:19:51.982Z,101311.93
2019-01-18T17:23:57.154Z,101306.80
2019-01-18T17:28:02.235Z,101311.49
2019-01-18T17:32:08.391Z,101309.72
2019-01-18T17:36:42.482Z,101309.27
2019-01-18T17:41:19.871Z,101315.73
2019-01-18T17:46:07.319Z,101315.32
2019-01-18T17:51:09.087Z,101320.48
2019-01-18T17:55:39.464Z,101316.16
2019-01-18T18:00:23.937Z,101310.95
2019-01-18T18:05:10.501Z,101311.36
2019-01-18T18:09:20.640Z,101309.64
2019-01-18T18:14:12.608Z,101309.70
2019-01-18T18:18:40.597Z,101310.07
2019-01-18T18:23:22.300Z,101301.83
2019-01-18T18:27:44.472Z,101306.55
2019-01-18T18:32:24.788Z,101303.97
2019-01-18T18:37:02.601Z,101306.56
2019-01-18T18:41:56.777Z,101307.05
2019-01-18T18:46:35.681Z,101307.00
2019-01-18T18:51:27.282Z,101303.95
2019-01-18T18:56:19.064Z,101299.29
2019-01-18T19:00:35.520Z,101300.16
2019-01-18T19:05:14.006Z,101292.42
2019-01-18T19:09:47.937Z,101282.52
2019-01-18T19:14:25.348Z,101282.50
2019-01-18T19:19:03.996Z,101272.16
2019-01-18T19:23:34.065Z,101273.45
2019-01-18T19:27:53.804Z,101267.91
2019-01-18T19:32:39.678Z,101266.63
2019-01-18T19:37:30.970Z,101273.56
2019-01-18T19:42:13.465Z,101267.92
2019-01-18T19:46:28.484Z,101267.49
2019-01-18T19:51:17.704Z,101270.50
2019-01-18T19:55:53.764Z,101267.06
2019-01-18T20:00:35.594Z,101261.06
2019-01-18T20:05:13.656Z,101249.86
2019-01-18T20:10:03.349Z,101252.45
2019-01-18T20:15:04.805Z,101263.22
2019-01-18T20:19:25.665Z,101258.05
2019-01-18T20:24:05.780Z,101258.52
2019-01-18T20:28:30.555Z,101254.60
2019-01-18T20:32:48.458Z,101259.81
2019-01-18T20:37:46.717Z,101255.48
2019-01-18T20:42:40.729Z,101253.77
2019-01-18T20:47:26.970Z,101256.36
2019-01-18T20:52:22.155Z,101252.50
2019-01-18T20:56:44.095Z,101259.39
2019-01-18T21:01:16.130Z,101255.08
2019-01-18T21:05:46.643Z,101258.55
2019-01-18T21:10:24.183Z,101256.81
2019-01-18T21:14:53.754Z,101255.94
2019-01-18T21:19:33.010Z,101259.82
2019-01-18T21:23:51.244Z,101252.51
2019-01-18T21:28:36.210Z,101253.80
2019-01-18T21:33:17.225Z,101255.09
2019-01-18T21:38:03.681Z,101255.52
2019-01-18T21:42:43.125Z,101252.06
2019-01-18T21:47:16.576Z,101257.23
2019-01-18T21:52:01.161Z,101251.20
2019-01-18T21:56:29.230Z,101253.34
2019-01-18T22:01:05.538Z,101252.06
2019-01-18T22:05:57.311Z,101255.09
2019-01-18T22:10:30.513Z,101258.97
2019-01-18T22:15:12.529Z,101259.81
2019-01-18T22:19:43.535Z,101264.98
2019-01-18T22:24:31.842Z,101253.73
2019-01-18T22:29:20.698Z,101265.84
2019-01-18T22:34:00.159Z,101264.55
2019-01-18T22:38:41.104Z,101258.05
2019-01-18T22:43:36.258Z,101264.98
2019-01-18T22:48:03.691Z,101264.98
2019-01-18T22:52:41.202Z,101261.97
2019-01-18T22:57:21.323Z,101258.97
2019-01-18T23:02:05.049Z,101267.13
2019-01-18T23:06:30.719Z,101263.71
2019-01-18T23:11:03.497Z,101260.69
2019-01-18T23:15:50.708Z,101259.83
2019-01-18T23:20:30.356Z,101261.98
2019-01-18T23:25:04.478Z,101249.48
2019-01-18T23:29:15.375Z,101243.86
2019-01-18T23:33:57.333Z,101244.28
2019-01-18T23:38:52.226Z,101245.14
2019-01-18T23:43:20.252Z,101243.39
2019-01-18T23:48:05.035Z,101241.67
2019-01-18T23:52:49.727Z,101237.80
2019-01-18T23:57:24.779Z,101240.37
